createdAt,value
2023-03-29T00:02:33.486Z,79.25
2023-03-29T00:05:04.997Z,79.35
2023-03-29T00:07:33.491Z,79.16
2023-03-29T00:10:01.817Z,79.29
2023-03-29T00:12:28.615Z,78.99
2023-03-29T00:14:55.169Z,79.47
2023-03-29T00:17:21.625Z,79.50
2023-03-29T00:19:48.112Z,79.82
2023-03-29T00:22:14.590Z,80.16
2023-03-29T00:24:41.385Z,79.93
2023-03-29T00:27:07.888Z,80.13
2023-03-29T00:29:34.446Z,80.41
2023-03-29T00:32:00.910Z,79.94
2023-03-29T00:34:30.738Z,79.87
2023-03-29T00:36:58.219Z,80.28
2023-03-29T00:39:26.330Z,80.30
2023-03-29T00:41:53.008Z,80.57
2023-03-29T00:44:57.253Z,80.24
2023-03-29T00:47:42.224Z,80.08
2023-03-29T00:50:37.868Z,80.08
2023-03-29T00:53:15.017Z,80.00
2023-03-29T00:55:47.496Z,79.76
2023-03-29T00:58:17.932Z,79.92
2023-03-29T01:00:57.780Z,80.22
2023-03-29T01:03:27.940Z,80.08
2023-03-29T01:06:00.061Z,80.01
2023-03-29T01:08:31.863Z,80.06
2023-03-29T01:11:06.982Z,80.25
2023-03-29T01:13:44.617Z,80.20
2023-03-29T01:16:13.978Z,80.25
2023-03-29T01:18:41.822Z,80.01
2023-03-29T01:24:25.105Z,80.49
2023-03-29T01:27:05.402Z,80.61
2023-03-29T01:29:39.004Z,80.60
2023-03-29T01:32:14.738Z,80.62
2023-03-29T01:34:49.821Z,80.74
2023-03-29T01:37:29.119Z,80.37
2023-03-29T01:39:55.583Z,80.84
2023-03-29T01:42:35.684Z,81.05
2023-03-29T01:45:13.278Z,80.37
2023-03-29T01:48:00.521Z,80.96
2023-03-29T01:50:35.906Z,80.61
2023-03-29T01:53:17.520Z,81.04
2023-03-29T01:55:50.529Z,80.58
2023-03-29T01:58:18.794Z,80.56
2023-03-29T02:00:46.212Z,80.72
2023-03-29T02:03:14.839Z,81.14
2023-03-29T02:05:42.992Z,81.32
2023-03-29T02:08:12.688Z,81.48
2023-03-29T02:10:39.886Z,81.74
2023-03-29T02:13:06.573Z,81.77
2023-03-29T02:15:33.350Z,81.44
2023-03-29T02:18:00.071Z,81.92
2023-03-29T02:20:38.885Z,81.45
2023-03-29T02:23:27.309Z,81.91
2023-03-29T02:25:56.835Z,81.45
2023-03-29T02:28:24.727Z,81.28
2023-03-29T02:30:57.101Z,81.40
2023-03-29T02:33:34.174Z,81.31
2023-03-29T02:36:06.401Z,81.60
2023-03-29T02:38:34.045Z,81.63
2023-03-29T02:41:01.463Z,81.99
2023-03-29T02:43:29.402Z,81.58
2023-03-29T02:45:56.431Z,82.03
2023-03-29T02:48:26.914Z,81.66
2023-03-29T02:50:57.933Z,82.06
2023-03-29T02:53:31.996Z,81.95
2023-03-29T02:56:02.065Z,82.06
2023-03-29T02:58:28.798Z,81.63
2023-03-29T03:00:58.893Z,82.02
2023-03-29T03:03:26.168Z,81.95
2023-03-29T03:05:53.809Z,81.54
2023-03-29T03:08:20.645Z,82.11
2023-03-29T03:10:47.640Z,82.05
2023-03-29T03:13:14.303Z,81.58
2023-03-29T03:15:42.711Z,81.49
2023-03-29T03:18:10.415Z,81.46
2023-03-29T03:20:37.172Z,81.63
2023-03-29T03:23:03.814Z,81.79
2023-03-29T03:25:30.414Z,82.30
2023-03-29T03:27:57.153Z,82.04
2023-03-29T03:30:23.832Z,81.64
2023-03-29T03:32:50.553Z,81.76
2023-03-29T03:35:17.955Z,81.91
2023-03-29T03:37:45.151Z,82.22
2023-03-29T03:40:13.569Z,82.10
2023-03-29T03:42:42.799Z,82.27
2023-03-29T03:45:10.579Z,81.64
2023-03-29T03:47:40.184Z,82.34
2023-03-29T03:50:08.481Z,81.51
2023-03-29T03:52:35.124Z,82.39
2023-03-29T03:55:02.770Z,82.14
2023-03-29T03:57:29.616Z,81.67
2023-03-29T03:59:56.419Z,82.42
2023-03-29T04:02:23.300Z,82.53
2023-03-29T04:04:50.024Z,82.18
2023-03-29T04:07:17.707Z,82.13
2023-03-29T04:09:45.020Z,82.19
2023-03-29T04:12:12.026Z,82.87
2023-03-29T04:14:38.714Z,82.45
2023-03-29T04:17:05.609Z,82.32
2023-03-29T04:19:32.484Z,82.28
2023-03-29T04:21:59.195Z,82.65
2023-03-29T04:24:26.016Z,82.87
2023-03-29T04:26:52.651Z,83.09
2023-03-29T04:29:19.313Z,82.36
2023-03-29T04:31:46.066Z,83.09
2023-03-29T04:34:12.820Z,82.75
2023-03-29T04:36:39.524Z,83.00
2023-03-29T04:39:07.832Z,83.12
2023-03-29T04:41:35.014Z,82.64
2023-03-29T04:44:02.478Z,82.51
2023-03-29T04:46:30.406Z,82.60
2023-03-29T04:48:57.324Z,82.87
2023-03-29T04:51:24.376Z,82.63
2023-03-29T04:53:51.135Z,82.40
2023-03-29T04:56:17.828Z,83.12
2023-03-29T04:58:44.512Z,82.69
2023-03-29T05:01:11.404Z,82.87
2023-03-29T05:03:38.409Z,82.88
2023-03-29T05:06:07.358Z,83.17
2023-03-29T05:08:35.242Z,83.56
2023-03-29T05:11:02.028Z,83.12
2023-03-29T05:13:28.888Z,83.24
2023-03-29T05:15:57.038Z,82.76
2023-03-29T05:18:23.749Z,82.99
2023-03-29T05:20:52.951Z,82.78
2023-03-29T05:23:20.217Z,83.16
2023-03-29T05:25:51.100Z,83.31
2023-03-29T05:28:18.306Z,83.00
2023-03-29T05:30:45.854Z,83.62
2023-03-29T05:33:12.688Z,83.28
2023-03-29T05:35:39.731Z,83.66
2023-03-29T05:38:06.557Z,83.79
2023-03-29T05:40:33.560Z,83.10
2023-03-29T05:43:02.392Z,83.55
2023-03-29T05:45:29.765Z,83.40
2023-03-29T05:47:57.571Z,83.88
2023-03-29T05:50:24.690Z,83.90
2023-03-29T05:52:51.537Z,83.50
2023-03-29T05:55:18.440Z,83.62
2023-03-29T05:57:45.137Z,83.42
2023-03-29T06:00:17.640Z,83.45
2023-03-29T06:02:44.323Z,83.46
2023-03-29T06:05:11.051Z,83.62
2023-03-29T06:07:38.385Z,83.24
2023-03-29T06:10:06.271Z,83.77
2023-03-29T06:12:33.032Z,83.67
2023-03-29T06:15:04.690Z,83.36
2023-03-29T06:17:33.550Z,83.55
2023-03-29T06:20:00.920Z,83.33
2023-03-29T06:22:27.813Z,83.25
2023-03-29T06:24:54.590Z,83.72
2023-03-29T06:27:21.205Z,83.62
2023-03-29T06:29:48.127Z,83.28
2023-03-29T06:32:14.746Z,83.50
2023-03-29T06:34:41.507Z,83.46
2023-03-29T06:37:08.501Z,83.47
2023-03-29T06:39:35.140Z,83.28
2023-03-29T06:42:10.111Z,83.20
2023-03-29T06:44:43.949Z,83.32
2023-03-29T06:47:10.719Z,83.59
2023-03-29T06:49:37.600Z,83.18
2023-03-29T06:52:04.510Z,83.05
2023-03-29T06:54:33.542Z,83.19
2023-03-29T06:57:00.757Z,82.55
2023-03-29T06:59:27.456Z,82.52
2023-03-29T07:01:54.685Z,82.43
2023-03-29T07:04:23.455Z,82.37
2023-03-29T07:07:01.172Z,82.34
2023-03-29T07:09:32.215Z,82.24
2023-03-29T07:11:59.544Z,81.69
2023-03-29T07:14:28.817Z,81.74
2023-03-29T07:16:56.772Z,81.66
2023-03-29T07:19:25.180Z,81.28
2023-03-29T07:21:53.265Z,81.04
2023-03-29T07:24:21.282Z,80.56
2023-03-29T07:27:00.256Z,80.67
2023-03-29T07:29:29.584Z,80.16
2023-03-29T07:31:56.429Z,80.15
2023-03-29T07:34:22.928Z,80.65
2023-03-29T07:36:49.391Z,79.94
2023-03-29T07:39:15.902Z,79.19
2023-03-29T07:41:42.403Z,79.12
2023-03-29T07:44:09.314Z,79.45
2023-03-29T07:46:36.892Z,79.29
2023-03-29T07:49:04.224Z,79.20
2023-03-29T07:51:31.227Z,79.34
2023-03-29T07:53:57.701Z,78.94
2023-03-29T07:56:24.774Z,78.57
2023-03-29T07:58:51.705Z,78.57
2023-03-29T08:01:19.899Z,78.07
2023-03-29T08:03:46.660Z,77.97
2023-03-29T08:06:13.280Z,77.88
2023-03-29T08:08:39.807Z,76.98
2023-03-29T08:11:08.941Z,77.26
2023-03-29T08:13:35.943Z,76.96
2023-03-29T08:16:02.387Z,76.58
2023-03-29T08:18:28.872Z,75.78
2023-03-29T08:20:55.327Z,75.60
2023-03-29T08:23:21.856Z,75.44
2023-03-29T08:25:48.281Z,74.08
2023-03-29T08:28:14.750Z,74.53
2023-03-29T08:30:41.984Z,73.45
2023-03-29T08:33:08.880Z,74.23
2023-03-29T08:35:35.632Z,73.70
2023-03-29T08:38:02.148Z,72.91
2023-03-29T08:40:30.221Z,72.22
2023-03-29T08:43:08.194Z,72.58
2023-03-29T08:45:51.334Z,73.19
2023-03-29T08:48:34.996Z,73.51
2023-03-29T08:51:09.326Z,72.49
2023-03-29T08:53:44.104Z,72.92
2023-03-29T08:56:34.203Z,71.69
2023-03-29T08:59:01.186Z,72.85
2023-03-29T09:01:35.281Z,72.91
2023-03-29T09:04:09.798Z,72.79
2023-03-29T09:06:39.389Z,72.62
2023-03-29T09:09:13.150Z,72.45
2023-03-29T09:11:46.301Z,73.03
2023-03-29T09:14:36.487Z,72.31
2023-03-29T09:17:28.009Z,72.49
2023-03-29T09:20:24.920Z,72.32
2023-03-29T09:23:18.124Z,72.46
2023-03-29T09:25:57.956Z,72.51
2023-03-29T09:28:33.336Z,72.29
2023-03-29T09:31:13.469Z,71.78
2023-03-29T09:33:44.943Z,72.39
2023-03-29T09:36:17.133Z,73.42
2023-03-29T09:38:47.807Z,72.47
2023-03-29T09:41:29.384Z,72.87
2023-03-29T09:44:00.386Z,72.23
2023-03-29T09:46:34.255Z,72.70
2023-03-29T09:49:03.992Z,71.85
2023-03-29T09:51:32.866Z,72.19
2023-03-29T09:54:00.618Z,71.66
2023-03-29T09:56:28.621Z,71.57
2023-03-29T09:58:55.194Z,72.54
2023-03-29T10:01:21.900Z,71.92
2023-03-29T10:03:53.252Z,71.67
2023-03-29T10:06:24.028Z,71.85
2023-03-29T10:08:57.557Z,71.65
2023-03-29T10:11:35.534Z,71.86
2023-03-29T10:14:22.854Z,71.80
2023-03-29T10:16:56.461Z,71.85
2023-03-29T10:19:26.998Z,71.84
2023-03-29T10:21:55.059Z,72.69
2023-03-29T10:24:24.003Z,72.57
2023-03-29T10:27:07.779Z,72.33
2023-03-29T10:29:42.322Z,72.00
2023-03-29T10:32:17.370Z,72.20
2023-03-29T10:34:47.275Z,72.34
2023-03-29T10:37:16.508Z,72.44
2023-03-29T10:39:43.259Z,71.75
2023-03-29T10:42:14.610Z,72.25
2023-03-29T10:44:41.211Z,72.09
2023-03-29T10:47:19.499Z,72.19
2023-03-29T10:49:58.717Z,71.96
2023-03-29T10:52:25.836Z,72.19
2023-03-29T10:54:55.335Z,72.28
2023-03-29T10:57:34.142Z,71.74
2023-03-29T11:00:34.221Z,72.16
2023-03-29T11:03:25.697Z,71.90
2023-03-29T11:05:59.360Z,72.12
2023-03-29T11:08:48.621Z,71.55
2023-03-29T11:11:27.254Z,71.43
2023-03-29T11:14:04.445Z,71.40
2023-03-29T11:16:42.611Z,71.13
2023-03-29T11:19:22.969Z,71.03
2023-03-29T11:22:02.990Z,71.72
2023-03-29T11:25:03.639Z,71.62
2023-03-29T11:27:33.052Z,71.77
2023-03-29T11:30:13.462Z,71.75
2023-03-29T11:32:51.372Z,71.71
2023-03-29T11:35:39.729Z,72.78
2023-03-29T11:38:45.110Z,71.53
2023-03-29T11:41:18.796Z,71.79
2023-03-29T11:44:06.082Z,71.85
2023-03-29T11:46:39.036Z,71.08
2023-03-29T11:49:13.806Z,71.67
2023-03-29T11:51:51.984Z,70.63
2023-03-29T11:54:30.819Z,70.60
2023-03-29T11:57:04.245Z,70.94
2023-03-29T11:59:42.488Z,70.55
2023-03-29T12:02:22.447Z,71.38
2023-03-29T12:04:54.663Z,71.02
2023-03-29T12:08:07.687Z,70.53
2023-03-29T12:10:43.247Z,70.70
2023-03-29T12:13:19.112Z,70.19
2023-03-29T12:15:48.239Z,70.01
2023-03-29T12:18:20.035Z,69.35
2023-03-29T12:20:57.825Z,69.34
2023-03-29T12:23:24.470Z,69.02
2023-03-29T12:26:19.749Z,68.39
2023-03-29T12:29:08.290Z,69.11
2023-03-29T12:31:52.271Z,69.59
2023-03-29T12:34:30.836Z,69.72
2023-03-29T12:37:17.598Z,69.73
2023-03-29T12:39:44.556Z,69.64
2023-03-29T12:42:17.658Z,70.52
2023-03-29T12:44:58.558Z,69.99
2023-03-29T12:47:32.112Z,70.90
2023-03-29T12:50:00.629Z,70.87
2023-03-29T12:52:32.724Z,71.03
2023-03-29T12:55:01.953Z,71.00
2023-03-29T12:57:39.940Z,70.61
2023-03-29T13:00:22.424Z,71.34
2023-03-29T13:03:19.581Z,72.13
2023-03-29T13:05:46.856Z,71.92
2023-03-29T13:08:27.574Z,72.02
2023-03-29T13:10:56.160Z,72.14
2023-03-29T13:13:27.817Z,72.46
2023-03-29T13:15:54.774Z,73.07
2023-03-29T13:18:40.252Z,73.17
2023-03-29T13:21:28.085Z,72.23
2023-03-29T13:24:16.725Z,72.44
2023-03-29T13:26:57.579Z,72.59
2023-03-29T13:29:26.755Z,73.54
2023-03-29T13:32:16.758Z,73.02
2023-03-29T13:34:52.243Z,72.81
2023-03-29T13:37:40.743Z,72.55
2023-03-29T13:40:42.914Z,73.10
2023-03-29T13:43:23.400Z,73.26
2023-03-29T13:45:58.803Z,73.54
2023-03-29T13:48:46.651Z,73.95
2023-03-29T13:51:13.074Z,74.83
2023-03-29T13:54:01.609Z,74.76
2023-03-29T13:56:35.854Z,74.25
2023-03-29T13:59:12.116Z,74.52
2023-03-29T14:01:49.159Z,73.87
2023-03-29T14:04:23.793Z,73.42
2023-03-29T14:06:54.056Z,73.24
2023-03-29T14:09:25.952Z,74.27
2023-03-29T14:11:53.111Z,74.19
2023-03-29T14:14:26.264Z,73.99
2023-03-29T14:16:55.185Z,74.12
2023-03-29T14:19:32.517Z,74.35
2023-03-29T14:22:01.594Z,74.48
2023-03-29T14:24:37.533Z,74.55
2023-03-29T14:27:05.791Z,74.97
2023-03-29T14:29:34.005Z,74.52
2023-03-29T14:32:18.292Z,73.45
2023-03-29T14:34:49.456Z,73.38
2023-03-29T14:37:22.785Z,73.24
2023-03-29T14:39:50.125Z,73.04
2023-03-29T14:42:21.258Z,72.79
2023-03-29T14:44:49.570Z,72.97
2023-03-29T14:47:34.711Z,73.09
2023-03-29T14:50:01.759Z,73.38
2023-03-29T14:52:30.307Z,73.64
2023-03-29T14:55:00.206Z,74.11
2023-03-29T14:57:32.813Z,74.20
2023-03-29T15:00:05.064Z,74.11
2023-03-29T15:02:33.380Z,73.83
2023-03-29T15:05:03.303Z,74.04
2023-03-29T15:07:32.288Z,73.73
2023-03-29T15:10:00.551Z,73.84
2023-03-29T15:12:32.263Z,73.85
2023-03-29T15:15:00.315Z,73.86
2023-03-29T15:17:50.320Z,73.96
2023-03-29T15:20:24.051Z,73.88
2023-03-29T15:23:07.466Z,73.59
2023-03-29T15:25:37.226Z,73.87
2023-03-29T15:28:04.582Z,73.52
2023-03-29T15:30:38.599Z,74.05
2023-03-29T15:33:19.097Z,73.93
2023-03-29T15:35:50.419Z,74.38
2023-03-29T15:38:17.976Z,74.20
2023-03-29T15:40:44.970Z,74.45
2023-03-29T15:43:12.269Z,74.44
2023-03-29T15:45:38.986Z,73.62
2023-03-29T15:48:21.581Z,74.10
2023-03-29T15:50:49.189Z,74.34
2023-03-29T15:53:17.094Z,74.08
2023-03-29T15:55:50.596Z,74.06
2023-03-29T15:58:20.477Z,74.07
2023-03-29T16:00:54.844Z,74.19
2023-03-29T16:03:22.276Z,73.95
2023-03-29T16:05:49.199Z,73.90
2023-03-29T16:08:15.919Z,74.22
2023-03-29T16:10:43.853Z,73.95
2023-03-29T16:13:13.741Z,74.54
2023-03-29T16:15:41.801Z,74.40
2023-03-29T16:18:09.090Z,74.43
2023-03-29T16:20:36.010Z,74.46
2023-03-29T16:23:08.616Z,74.24
2023-03-29T16:25:38.402Z,74.75
2023-03-29T16:28:07.562Z,74.47
2023-03-29T16:30:35.652Z,75.08
2023-03-29T16:33:06.190Z,75.36
2023-03-29T16:35:35.564Z,75.19
2023-03-29T16:38:02.359Z,75.00
2023-03-29T16:40:29.121Z,75.18
2023-03-29T16:42:55.821Z,75.04
2023-03-29T16:45:23.102Z,75.21
2023-03-29T16:47:50.014Z,75.53
2023-03-29T16:50:18.853Z,75.91
2023-03-29T16:52:47.818Z,75.76
2023-03-29T16:55:15.663Z,76.49
2023-03-29T16:57:42.513Z,76.32
2023-03-29T17:00:15.782Z,76.87
2023-03-29T17:02:43.455Z,76.95
2023-03-29T17:05:11.704Z,76.95
2023-03-29T17:07:43.028Z,76.41
2023-03-29T17:10:10.883Z,77.05
2023-03-29T17:12:37.710Z,76.72
2023-03-29T17:15:05.919Z,77.07
2023-03-29T17:17:32.570Z,77.61
2023-03-29T17:19:59.145Z,77.96
2023-03-29T17:22:25.930Z,77.40
2023-03-29T17:24:52.404Z,77.83
2023-03-29T17:27:18.987Z,77.28
2023-03-29T17:29:45.551Z,77.73
2023-03-29T17:32:12.045Z,77.80
2023-03-29T17:34:38.828Z,78.04
2023-03-29T17:37:05.288Z,78.20
2023-03-29T17:39:33.050Z,77.90
2023-03-29T17:41:59.641Z,78.20
2023-03-29T17:44:26.881Z,78.11
2023-03-29T17:46:53.396Z,78.54
2023-03-29T17:49:19.897Z,78.53
2023-03-29T17:51:46.455Z,79.08
2023-03-29T17:54:12.976Z,79.10
2023-03-29T17:56:39.534Z,78.90
2023-03-29T17:59:05.985Z,79.49
2023-03-29T18:01:32.758Z,79.49
2023-03-29T18:03:59.318Z,79.66
2023-03-29T18:06:25.815Z,79.43
2023-03-29T18:08:53.189Z,80.32
2023-03-29T18:11:25.512Z,79.45
2023-03-29T18:13:52.986Z,79.72
2023-03-29T18:16:21.242Z,79.85
2023-03-29T18:18:48.278Z,79.62
2023-03-29T18:21:16.452Z,79.83
2023-03-29T18:23:47.494Z,80.49
2023-03-29T18:26:16.314Z,80.10
2023-03-29T18:28:46.523Z,79.97
2023-03-29T18:31:13.093Z,80.72
2023-03-29T18:33:39.534Z,81.05
2023-03-29T18:36:10.838Z,80.45
2023-03-29T18:38:40.373Z,81.34
2023-03-29T18:41:08.368Z,80.37
2023-03-29T18:43:35.874Z,80.58
2023-03-29T18:46:03.410Z,81.54
2023-03-29T18:48:30.451Z,81.65
2023-03-29T18:50:57.734Z,81.44
2023-03-29T18:53:24.569Z,81.69
2023-03-29T18:55:51.022Z,81.18
2023-03-29T18:58:17.773Z,81.48
2023-03-29T19:00:44.444Z,81.87
2023-03-29T19:03:11.112Z,81.40
2023-03-29T19:05:39.379Z,81.39
2023-03-29T19:08:08.853Z,81.71
2023-03-29T19:10:37.036Z,81.71
2023-03-29T19:13:04.235Z,82.25
2023-03-29T19:15:32.443Z,82.38
2023-03-29T19:17:59.207Z,81.74
2023-03-29T19:20:26.454Z,81.81
2023-03-29T19:22:53.561Z,82.41
2023-03-29T19:25:20.547Z,81.76
2023-03-29T19:27:47.697Z,81.71
2023-03-29T19:30:14.818Z,82.21
2023-03-29T19:32:41.524Z,82.34
2023-03-29T19:35:09.544Z,82.22
2023-03-29T19:37:36.446Z,82.13
2023-03-29T19:40:06.450Z,82.32
2023-03-29T19:42:35.962Z,82.22
2023-03-29T19:45:03.925Z,82.43
2023-03-29T19:47:31.084Z,82.51
2023-03-29T19:49:58.596Z,82.42
2023-03-29T19:52:27.772Z,82.78
2023-03-29T19:54:56.306Z,82.45
2023-03-29T19:57:23.882Z,82.63
2023-03-29T19:59:52.956Z,82.18
2023-03-29T20:02:19.921Z,82.37
2023-03-29T20:04:46.643Z,82.59
2023-03-29T20:07:13.273Z,82.19
2023-03-29T20:09:39.923Z,82.84
2023-03-29T20:12:06.479Z,82.53
2023-03-29T20:14:34.162Z,82.44
2023-03-29T20:17:00.607Z,83.12
2023-03-29T20:19:27.085Z,83.16
2023-03-29T20:21:57.364Z,83.10
2023-03-29T20:24:25.140Z,83.08
2023-03-29T20:26:52.090Z,82.74
2023-03-29T20:29:18.637Z,83.25
2023-03-29T20:31:45.992Z,82.75
2023-03-29T20:34:12.648Z,83.17
2023-03-29T20:36:40.469Z,83.02
2023-03-29T20:39:08.085Z,82.99
2023-03-29T20:41:38.254Z,82.59
2023-03-29T20:44:05.614Z,83.15
2023-03-29T20:46:37.556Z,82.98
2023-03-29T20:49:07.280Z,82.87
2023-03-29T20:51:33.700Z,83.09
2023-03-29T20:54:04.655Z,83.68
2023-03-29T20:56:33.828Z,84.04
2023-03-29T20:59:00.595Z,83.54
2023-03-29T21:01:29.454Z,83.74
2023-03-29T21:03:56.410Z,83.89
2023-03-29T21:06:24.338Z,83.70
2023-03-29T21:08:52.448Z,84.39
2023-03-29T21:11:20.177Z,84.10
2023-03-29T21:13:47.255Z,84.77
2023-03-29T21:16:13.783Z,84.77
2023-03-29T21:18:40.509Z,84.86
2023-03-29T21:21:08.423Z,84.53
2023-03-29T21:23:35.968Z,84.80
2023-03-29T21:26:04.042Z,84.72
2023-03-29T21:28:30.860Z,85.24
2023-03-29T21:30:57.339Z,85.50
2023-03-29T21:33:23.854Z,85.36
2023-03-29T21:35:50.588Z,85.73
2023-03-29T21:38:17.416Z,85.77
2023-03-29T21:40:43.931Z,85.90
2023-03-29T21:43:10.370Z,86.39
2023-03-29T21:45:36.833Z,86.12
2023-03-29T21:48:03.447Z,85.92
2023-03-29T21:50:31.978Z,86.31
2023-03-29T21:53:02.685Z,86.23
2023-03-29T21:55:29.161Z,86.48
2023-03-29T21:57:55.642Z,86.28
2023-03-29T22:00:22.697Z,86.19
2023-03-29T22:02:49.273Z,86.41
2023-03-29T22:05:16.198Z,86.82
2023-03-29T22:07:42.975Z,86.46
2023-03-29T22:10:12.506Z,86.54
2023-03-29T22:12:39.424Z,86.80
2023-03-29T22:15:07.169Z,86.69
2023-03-29T22:17:34.420Z,86.89
2023-03-29T22:20:02.634Z,86.71
2023-03-29T22:22:29.066Z,86.73
2023-03-29T22:24:56.102Z,86.81
2023-03-29T22:27:23.098Z,87.64
2023-03-29T22:29:49.540Z,87.46
2023-03-29T22:32:16.157Z,87.83
2023-03-29T22:34:42.674Z,88.27
2023-03-29T22:37:09.150Z,88.06
2023-03-29T22:39:36.608Z,88.38
2023-03-29T22:42:03.193Z,88.44
2023-03-29T22:44:29.708Z,88.04
2023-03-29T22:46:56.160Z,88.17
2023-03-29T22:49:22.679Z,88.06
2023-03-29T22:51:49.230Z,87.71
2023-03-29T22:54:15.684Z,87.70
2023-03-29T22:56:42.201Z,87.58
2023-03-29T22:59:08.758Z,87.28
2023-03-29T23:01:35.296Z,87.27
2023-03-29T23:04:01.968Z,87.81
2023-03-29T23:06:28.564Z,87.20
2023-03-29T23:08:55.016Z,87.37
2023-03-29T23:11:21.561Z,87.18
2023-03-29T23:13:48.713Z,87.25
2023-03-29T23:16:16.348Z,87.25
2023-03-29T23:18:42.901Z,86.41
2023-03-29T23:21:10.384Z,86.33
2023-03-29T23:23:36.912Z,86.62
2023-03-29T23:26:03.901Z,86.59
2023-03-29T23:28:31.360Z,86.46
2023-03-29T23:31:00.694Z,86.14
2023-03-29T23:33:33.266Z,86.75
2023-03-29T23:36:00.663Z,86.39
2023-03-29T23:38:27.766Z,86.77
2023-03-29T23:41:00.247Z,86.97
2023-03-29T23:43:32.424Z,86.53
2023-03-29T23:46:01.121Z,86.91
2023-03-29T23:48:28.069Z,87.06
2023-03-29T23:50:57.160Z,86.26
2023-03-29T23:53:25.446Z,85.94
2023-03-29T23:55:51.981Z,86.91
2023-03-29T23:58:18.426Z,86.92
